createdAt,value
2022-11-20T00:00:15.009Z,39.60
2022-11-20T00:01:15.294Z,42.20
2022-11-20T00:02:15.671Z,44.50
2022-11-20T00:03:15.872Z,46.50
2022-11-20T00:04:16.099Z,43.40
2022-11-20T00:05:16.364Z,41.80
2022-11-20T00:06:16.675Z,44.30
2022-11-20T00:07:17.077Z,41.70
2022-11-20T00:08:17.303Z,40.40
2022-11-20T00:09:17.777Z,41.10
2022-11-20T00:10:17.898Z,42.50
2022-11-20T00:11:18.204Z,48.10
2022-11-20T00:12:18.957Z,41.00
2022-11-20T00:13:18.814Z,45.30
2022-11-20T00:14:19.080Z,45.20
2022-11-20T00:15:19.480Z,44.00
2022-11-20T00:16:19.719Z,37.60
2022-11-20T00:17:20.021Z,38.10
2022-11-20T00:18:20.404Z,38.30
2022-11-20T00:19:20.710Z,40.10
2022-11-20T00:20:20.894Z,42.60
2022-11-20T00:21:22.201Z,41.90
2022-11-20T00:22:21.421Z,45.20
2022-11-20T00:23:21.779Z,44.30
2022-11-20T00:24:22.056Z,44.70
2022-11-20T00:25:24.325Z,48.20
2022-11-20T00:26:22.622Z,43.30
2022-11-20T00:27:22.944Z,43.20
2022-11-20T00:28:23.155Z,41.30
2022-11-20T00:29:23.689Z,40.90
2022-11-20T00:30:23.785Z,39.30
2022-11-20T00:31:24.094Z,39.00
2022-11-20T00:32:24.416Z,41.00
2022-11-20T00:33:24.668Z,41.10
2022-11-20T00:34:25.025Z,41.10
2022-11-20T00:35:25.285Z,39.00
2022-11-20T00:36:25.591Z,41.40
2022-11-20T00:37:25.805Z,39.00
2022-11-20T00:38:26.152Z,42.60
2022-11-20T00:39:26.504Z,40.50
2022-11-20T00:40:26.787Z,40.60
2022-11-20T00:41:27.162Z,42.70
2022-11-20T00:42:27.352Z,40.70
2022-11-20T00:43:27.746Z,41.40
2022-11-20T00:44:27.985Z,42.20
2022-11-20T00:45:28.214Z,42.20
2022-11-20T00:46:28.564Z,42.50
2022-11-20T00:47:28.881Z,41.10
2022-11-20T00:48:29.155Z,40.90
2022-11-20T00:49:29.399Z,41.30
2022-11-20T00:50:29.750Z,41.70
2022-11-20T00:51:30.135Z,41.40
2022-11-20T00:52:30.327Z,41.80
2022-11-20T00:53:30.695Z,41.60
2022-11-20T00:54:30.814Z,42.40
2022-11-20T00:55:31.176Z,41.20
2022-11-20T00:56:31.475Z,41.60
2022-11-20T00:57:31.789Z,41.20
2022-11-20T00:58:32.168Z,40.00
2022-11-20T00:59:32.308Z,41.10
2022-11-20T01:00:32.707Z,42.40
2022-11-20T01:01:33.077Z,42.60
2022-11-20T01:02:33.280Z,41.20
2022-11-20T01:03:33.658Z,41.70
2022-11-20T01:04:33.948Z,40.70
2022-11-20T01:05:34.224Z,42.60
2022-11-20T01:06:34.538Z,42.00
2022-11-20T01:07:34.977Z,38.60
2022-11-20T01:08:35.166Z,43.50
2022-11-20T01:09:35.528Z,41.10
2022-11-20T01:10:35.709Z,40.90
2022-11-20T01:11:36.042Z,38.90
2022-11-20T01:12:36.396Z,36.90
2022-11-20T01:13:36.591Z,33.90
2022-11-20T01:14:36.879Z,37.00
2022-11-20T01:15:37.157Z,38.90
2022-11-20T01:16:37.380Z,37.80
2022-11-20T01:17:37.665Z,41.40
2022-11-20T01:18:37.997Z,36.50
2022-11-20T01:19:38.425Z,38.30
2022-11-20T01:20:38.629Z,37.00
2022-11-20T01:21:38.996Z,36.40
2022-11-20T01:22:39.300Z,34.60
2022-11-20T01:23:39.611Z,42.10
2022-11-20T01:24:39.867Z,34.20
2022-11-20T01:25:40.063Z,35.20
2022-11-20T01:26:40.480Z,35.30
2022-11-20T01:27:40.731Z,34.60
2022-11-20T01:28:41.025Z,36.40
2022-11-20T01:29:41.422Z,36.00
2022-11-20T01:30:41.595Z,35.90
2022-11-20T01:31:42.001Z,34.30
2022-11-20T01:32:42.325Z,33.40
2022-11-20T01:33:42.540Z,32.00
2022-11-20T01:34:43.773Z,30.60
2022-11-20T01:35:44.043Z,30.80
2022-11-20T01:36:43.385Z,31.80
2022-11-20T01:37:43.736Z,35.60
2022-11-20T01:38:44.006Z,38.50
2022-11-20T01:39:44.218Z,39.10
2022-11-20T01:40:44.537Z,41.40
2022-11-20T01:41:44.809Z,40.10
2022-11-20T01:42:45.085Z,41.70
2022-11-20T01:43:45.453Z,41.70
2022-11-20T01:44:45.648Z,43.20
2022-11-20T01:45:45.916Z,41.40
2022-11-20T01:46:46.224Z,38.90
2022-11-20T01:47:46.610Z,39.00
2022-11-20T01:48:46.817Z,37.70
2022-11-20T01:49:47.121Z,39.60
2022-11-20T01:50:47.328Z,39.30
2022-11-20T01:51:47.667Z,36.50
2022-11-20T01:52:47.940Z,36.80
2022-11-20T01:53:48.298Z,37.60
2022-11-20T01:54:48.530Z,38.40
2022-11-20T01:55:48.834Z,38.20
2022-11-20T01:56:49.145Z,38.20
2022-11-20T01:57:49.487Z,39.90
2022-11-20T01:58:49.775Z,37.90
2022-11-20T01:59:50.068Z,38.20
2022-11-20T02:00:50.325Z,38.30
2022-11-20T02:01:50.689Z,39.30
2022-11-20T02:02:50.975Z,40.60
2022-11-20T02:03:51.350Z,39.70
2022-11-20T02:04:51.536Z,40.60
2022-11-20T02:05:51.850Z,37.90
2022-11-20T02:06:52.191Z,37.40
2022-11-20T02:07:52.579Z,35.70
2022-11-20T02:08:52.850Z,37.10
2022-11-20T02:09:58.515Z,39.40
2022-11-20T02:10:53.395Z,39.60
2022-11-20T02:11:53.724Z,37.90
2022-11-20T02:12:53.988Z,35.90
2022-11-20T02:13:54.335Z,36.60
2022-11-20T02:14:54.513Z,37.90
2022-11-20T02:15:54.852Z,37.50
2022-11-20T02:16:55.177Z,37.70
2022-11-20T02:17:55.562Z,38.70
2022-11-20T02:18:55.808Z,36.50
2022-11-20T02:19:56.095Z,37.80
2022-11-20T02:20:56.351Z,35.60
2022-11-20T02:21:56.735Z,36.00
2022-11-20T02:22:56.910Z,35.60
2022-11-20T02:23:57.273Z,35.50
2022-11-20T02:24:58.463Z,34.30
2022-11-20T02:25:57.798Z,36.90
2022-11-20T02:26:59.001Z,36.20
2022-11-20T02:27:58.467Z,36.70
2022-11-20T02:28:58.789Z,36.60
2022-11-20T02:29:59.172Z,37.90
2022-11-20T02:30:59.430Z,35.20
2022-11-20T02:31:59.624Z,35.50
2022-11-20T02:32:59.849Z,26.80
2022-11-20T02:34:00.209Z,25.50
2022-11-20T02:35:00.537Z,26.20
2022-11-20T02:36:00.860Z,27.30
2022-11-20T02:37:01.613Z,27.90
2022-11-20T02:38:01.363Z,28.80
2022-11-20T02:39:01.630Z,29.40
2022-11-20T02:40:01.944Z,29.70
2022-11-20T02:41:02.155Z,33.00
2022-11-20T02:42:02.514Z,31.10
2022-11-20T02:43:03.913Z,27.60
2022-11-20T02:44:03.182Z,26.50
2022-11-20T02:45:03.417Z,27.10
2022-11-20T02:46:03.658Z,27.30
2022-11-20T02:47:03.846Z,27.10
2022-11-20T02:48:04.129Z,27.20
2022-11-20T02:49:04.493Z,27.80
2022-11-20T02:50:04.803Z,26.60
2022-11-20T02:51:05.048Z,27.90
2022-11-20T02:52:05.273Z,29.20
2022-11-20T02:53:05.980Z,28.90
2022-11-20T02:54:05.987Z,29.60
2022-11-20T02:55:06.346Z,26.90
2022-11-20T02:56:06.620Z,27.60
2022-11-20T02:57:06.926Z,28.20
2022-11-20T02:58:07.343Z,27.00
2022-11-20T02:59:07.650Z,28.40
2022-11-20T03:00:07.937Z,29.50
2022-11-20T03:01:08.200Z,28.90
2022-11-20T03:02:08.457Z,27.70
2022-11-20T03:03:08.676Z,27.60
2022-11-20T03:04:09.040Z,26.70
2022-11-20T03:05:09.290Z,28.20
2022-11-20T03:06:10.169Z,29.70
2022-11-20T03:07:10.045Z,27.90
2022-11-20T03:08:10.258Z,29.60
2022-11-20T03:09:10.633Z,30.10
2022-11-20T03:10:10.853Z,30.20
2022-11-20T03:11:11.183Z,30.20
2022-11-20T03:12:11.553Z,31.60
2022-11-20T03:13:11.707Z,31.50
2022-11-20T03:14:12.120Z,31.60
2022-11-20T03:15:12.350Z,34.00
2022-11-20T03:16:12.638Z,33.00
2022-11-20T03:17:13.819Z,33.70
2022-11-20T03:18:13.319Z,34.00
2022-11-20T03:19:13.606Z,31.80
2022-11-20T03:20:14.086Z,32.90
2022-11-20T03:21:14.309Z,33.80
2022-11-20T03:22:14.522Z,33.40
2022-11-20T03:23:14.840Z,33.80
2022-11-20T03:24:15.173Z,33.00
2022-11-20T03:25:15.496Z,34.00
2022-11-20T03:26:15.913Z,35.60
2022-11-20T03:27:16.105Z,33.20
2022-11-20T03:28:16.429Z,35.00
2022-11-20T03:29:16.770Z,35.70
2022-11-20T03:30:17.139Z,32.40
2022-11-20T03:31:17.301Z,32.30
2022-11-20T03:32:17.680Z,33.10
2022-11-20T03:33:17.950Z,34.40
2022-11-20T03:34:18.298Z,36.10
2022-11-20T03:35:18.605Z,35.30
2022-11-20T03:36:19.006Z,32.80
2022-11-20T03:37:19.253Z,35.10
2022-11-20T03:38:19.449Z,34.00
2022-11-20T03:39:20.014Z,33.80
2022-11-20T03:40:20.185Z,31.10
2022-11-20T03:41:20.384Z,32.00
2022-11-20T03:42:20.719Z,30.10
2022-11-20T03:43:21.116Z,31.70
2022-11-20T03:44:21.286Z,30.00
2022-11-20T03:45:21.667Z,30.40
2022-11-20T03:46:21.989Z,31.60
2022-11-20T03:47:22.336Z,32.00
2022-11-20T03:48:22.545Z,34.00
2022-11-20T03:49:23.234Z,33.40
2022-11-20T03:50:23.132Z,33.90
2022-11-20T03:51:23.419Z,35.80
2022-11-20T03:52:23.775Z,33.50
2022-11-20T03:53:24.183Z,33.50
2022-11-20T03:54:24.357Z,31.80
2022-11-20T03:55:24.671Z,33.00
2022-11-20T03:56:24.932Z,37.50
2022-11-20T03:57:25.251Z,37.00
2022-11-20T03:58:25.608Z,37.80
2022-11-20T03:59:25.944Z,37.00
2022-11-20T04:00:26.184Z,37.10
2022-11-20T04:01:26.529Z,37.20
2022-11-20T04:02:26.800Z,35.40
2022-11-20T04:03:27.998Z,34.60
2022-11-20T04:04:27.325Z,33.80
2022-11-20T04:05:27.708Z,33.50
2022-11-20T04:06:27.901Z,34.00
2022-11-20T04:07:28.228Z,34.20
2022-11-20T04:08:28.522Z,34.00
2022-11-20T04:09:28.845Z,34.00
2022-11-20T04:10:29.152Z,32.30
2022-11-20T04:11:29.450Z,36.90
2022-11-20T04:12:29.808Z,32.40
2022-11-20T04:13:30.119Z,33.60
2022-11-20T04:14:30.333Z,35.80
2022-11-20T04:15:34.295Z,32.10
2022-11-20T04:16:31.892Z,33.10
2022-11-20T04:17:31.084Z,31.60
2022-11-20T04:18:31.394Z,33.20
2022-11-20T04:19:31.726Z,33.00
2022-11-20T04:20:32.064Z,30.90
2022-11-20T04:21:32.358Z,32.20
2022-11-20T04:22:32.712Z,31.00
2022-11-20T04:23:33.000Z,32.20
2022-11-20T04:24:33.423Z,32.10
2022-11-20T04:25:33.605Z,32.50
2022-11-20T04:26:34.024Z,30.80
2022-11-20T04:27:34.206Z,30.50
2022-11-20T04:28:34.620Z,31.10
2022-11-20T04:29:34.785Z,31.70
2022-11-20T04:30:35.035Z,30.60
2022-11-20T04:31:35.750Z,31.40
2022-11-20T04:32:35.648Z,34.40
2022-11-20T04:33:35.843Z,28.80
2022-11-20T04:34:36.202Z,32.10
2022-11-20T04:35:36.467Z,32.10
2022-11-20T04:36:36.873Z,31.80
2022-11-20T04:37:37.060Z,34.10
2022-11-20T04:38:37.443Z,32.00
2022-11-20T04:39:37.673Z,30.30
2022-11-20T04:40:37.991Z,31.70
2022-11-20T04:41:38.333Z,35.30
2022-11-20T04:42:39.467Z,31.50
2022-11-20T04:43:38.952Z,31.30
2022-11-20T04:44:42.175Z,32.00
2022-11-20T04:45:39.584Z,33.20
2022-11-20T04:46:39.934Z,33.40
2022-11-20T04:47:40.203Z,33.00
2022-11-20T04:48:40.517Z,30.80
2022-11-20T04:49:40.846Z,30.90
2022-11-20T04:50:41.155Z,32.90
2022-11-20T04:51:41.515Z,31.30
2022-11-20T04:52:41.864Z,31.80
2022-11-20T04:53:42.001Z,33.00
2022-11-20T04:54:42.370Z,37.30
2022-11-20T04:55:42.732Z,34.00
2022-11-20T04:56:42.937Z,36.30
2022-11-20T04:57:43.251Z,34.80
2022-11-20T04:58:43.562Z,36.00
2022-11-20T04:59:43.868Z,33.40
2022-11-20T05:00:44.150Z,33.60
2022-11-20T05:01:44.553Z,36.10
2022-11-20T05:02:44.863Z,32.60
2022-11-20T05:03:45.142Z,34.30
2022-11-20T05:04:45.444Z,31.50
2022-11-20T05:05:45.803Z,32.40
2022-11-20T05:06:46.047Z,32.50
2022-11-20T05:07:46.217Z,30.80
2022-11-20T05:08:46.563Z,33.70
2022-11-20T05:09:46.856Z,31.20
2022-11-20T05:10:47.230Z,31.60
2022-11-20T05:11:51.304Z,31.20
2022-11-20T05:12:47.801Z,30.30
2022-11-20T05:13:48.056Z,32.60
2022-11-20T05:14:48.335Z,32.40
2022-11-20T05:15:48.602Z,32.80
2022-11-20T05:16:49.307Z,32.40
2022-11-20T05:17:49.172Z,30.50
2022-11-20T05:18:49.538Z,29.90
2022-11-20T05:19:53.123Z,30.40
2022-11-20T05:20:50.012Z,30.40
2022-11-20T05:21:50.736Z,30.00
2022-11-20T05:22:50.638Z,29.80
2022-11-20T05:23:50.951Z,29.50
2022-11-20T05:24:51.311Z,31.40
2022-11-20T05:25:56.023Z,29.80
2022-11-20T05:26:52.827Z,29.90
2022-11-20T05:27:52.146Z,29.80
2022-11-20T05:28:52.615Z,30.20
2022-11-20T05:29:52.840Z,30.10
2022-11-20T05:30:53.173Z,31.50
2022-11-20T05:31:53.462Z,30.40
2022-11-20T05:32:53.819Z,30.50
2022-11-20T05:33:54.118Z,29.80
2022-11-20T05:34:54.499Z,30.50
2022-11-20T05:35:54.721Z,29.10
2022-11-20T05:36:55.039Z,31.40
2022-11-20T05:37:55.377Z,30.90
2022-11-20T05:39:01.245Z,29.80
2022-11-20T05:39:56.947Z,28.60
2022-11-20T05:40:56.282Z,30.90
2022-11-20T05:41:56.590Z,31.50
2022-11-20T05:42:56.908Z,30.20
2022-11-20T05:43:57.229Z,30.90
2022-11-20T05:44:57.539Z,28.60
2022-11-20T05:45:57.870Z,29.20
2022-11-20T05:46:58.152Z,31.80
2022-11-20T05:47:58.403Z,29.90
2022-11-20T05:48:58.811Z,33.60
2022-11-20T05:49:58.959Z,35.30
2022-11-20T05:50:59.318Z,34.00
2022-11-20T05:51:59.644Z,33.40
2022-11-20T05:52:59.965Z,34.80
2022-11-20T05:54:00.305Z,34.40
2022-11-20T05:55:00.626Z,34.00
2022-11-20T05:56:00.952Z,33.10
2022-11-20T05:57:01.272Z,34.00
2022-11-20T05:58:01.452Z,34.60
2022-11-20T05:59:01.787Z,36.10
2022-11-20T06:00:02.199Z,36.50
2022-11-20T06:01:02.396Z,38.40
2022-11-20T06:02:02.693Z,34.80
2022-11-20T06:03:03.114Z,37.60
2022-11-20T06:04:03.271Z,38.60
2022-11-20T06:05:03.643Z,40.10
2022-11-20T06:06:03.934Z,41.00
2022-11-20T06:07:04.353Z,44.80
2022-11-20T06:08:04.710Z,43.90
2022-11-20T06:09:04.842Z,45.90
2022-11-20T06:10:05.088Z,44.10
2022-11-20T06:11:05.423Z,46.80
2022-11-20T06:12:05.762Z,45.60
2022-11-20T06:13:06.136Z,47.20
2022-11-20T06:14:06.339Z,48.90
2022-11-20T06:15:06.725Z,44.60
2022-11-20T06:16:06.941Z,42.30
2022-11-20T06:17:07.167Z,42.20
2022-11-20T06:18:07.465Z,44.30
2022-11-20T06:19:07.771Z,44.50
2022-11-20T06:20:07.944Z,44.40
2022-11-20T06:21:08.268Z,45.30
2022-11-20T06:22:08.600Z,40.70
2022-11-20T06:23:08.942Z,40.90
2022-11-20T06:24:09.243Z,41.20
2022-11-20T06:25:09.506Z,40.80
2022-11-20T06:26:09.852Z,41.50
2022-11-20T06:27:10.242Z,41.10
2022-11-20T06:28:10.434Z,39.60
2022-11-20T06:29:10.710Z,41.10
2022-11-20T06:30:10.936Z,42.70
2022-11-20T06:31:11.199Z,40.20
2022-11-20T06:32:11.430Z,39.90
2022-11-20T06:33:11.772Z,34.90
2022-11-20T06:34:12.147Z,34.80
2022-11-20T06:35:12.392Z,35.20
2022-11-20T06:36:12.757Z,35.10
2022-11-20T06:37:12.963Z,37.90
2022-11-20T06:38:13.196Z,36.60
2022-11-20T06:39:13.575Z,35.00
2022-11-20T06:40:13.851Z,35.20
2022-11-20T06:41:14.128Z,34.80
2022-11-20T06:42:14.379Z,37.80
2022-11-20T06:43:14.647Z,39.40
2022-11-20T06:44:14.867Z,38.10
2022-11-20T06:45:15.178Z,37.80
2022-11-20T06:46:15.388Z,39.20
2022-11-20T06:47:15.708Z,37.80
2022-11-20T06:48:15.925Z,35.50
2022-11-20T06:49:16.267Z,36.30
2022-11-20T06:50:16.492Z,36.90
2022-11-20T06:51:16.755Z,36.90
2022-11-20T06:52:17.043Z,39.80
2022-11-20T06:53:17.284Z,37.70
2022-11-20T06:54:17.534Z,37.30
2022-11-20T06:55:17.775Z,37.70
2022-11-20T06:56:18.012Z,36.40
2022-11-20T06:57:19.217Z,36.80
2022-11-20T06:58:18.593Z,37.50
2022-11-20T06:59:18.965Z,36.60
2022-11-20T07:00:19.162Z,37.20
2022-11-20T07:01:19.473Z,37.50
2022-11-20T07:02:19.731Z,36.40
2022-11-20T07:03:19.964Z,38.60
2022-11-20T07:04:20.217Z,35.10
2022-11-20T07:05:20.478Z,36.00
2022-11-20T07:06:20.705Z,42.20
2022-11-20T07:07:21.046Z,38.90
2022-11-20T07:08:21.238Z,36.20
2022-11-20T07:09:21.497Z,39.20
2022-11-20T07:10:21.725Z,39.10
2022-11-20T07:11:22.042Z,40.70
2022-11-20T07:12:22.280Z,37.90
2022-11-20T07:13:22.556Z,38.80
2022-11-20T07:14:22.881Z,39.70
2022-11-20T07:15:23.115Z,37.90
2022-11-20T07:16:23.364Z,38.60
2022-11-20T07:17:23.658Z,39.70
2022-11-20T07:18:23.946Z,37.00
2022-11-20T07:19:24.344Z,37.80
2022-11-20T07:20:24.453Z,38.90
2022-11-20T07:21:24.757Z,33.40
2022-11-20T07:22:24.997Z,33.50
2022-11-20T07:23:25.695Z,33.20
2022-11-20T07:24:25.552Z,33.70
2022-11-20T07:25:25.800Z,32.60
2022-11-20T07:26:26.064Z,32.90
2022-11-20T07:27:26.321Z,34.90
2022-11-20T07:28:26.621Z,36.00
2022-11-20T07:29:26.859Z,33.60
2022-11-20T07:30:27.113Z,36.70
2022-11-20T07:31:27.409Z,36.30
2022-11-20T07:32:27.693Z,37.60
2022-11-20T07:33:27.936Z,34.40
2022-11-20T07:34:28.175Z,36.20
2022-11-20T07:35:28.548Z,31.50
2022-11-20T07:36:28.845Z,37.30
2022-11-20T07:37:29.088Z,35.50
2022-11-20T07:38:29.436Z,34.00
2022-11-20T07:39:29.640Z,37.40
2022-11-20T07:40:29.939Z,36.00
2022-11-20T07:41:30.230Z,36.00
2022-11-20T07:42:30.446Z,38.10
2022-11-20T07:43:30.731Z,41.50
2022-11-20T07:44:31.003Z,43.30
2022-11-20T07:45:31.281Z,43.00
2022-11-20T07:46:31.559Z,37.10
2022-11-20T07:47:31.822Z,42.80
2022-11-20T07:48:32.125Z,46.20
2022-11-20T07:49:32.369Z,43.10
2022-11-20T07:50:32.623Z,46.00
2022-11-20T07:51:32.867Z,42.20
2022-11-20T07:52:33.143Z,43.20
2022-11-20T07:53:33.462Z,40.40
2022-11-20T07:54:33.691Z,38.10
2022-11-20T07:55:33.965Z,43.20
2022-11-20T07:56:34.224Z,42.10
2022-11-20T07:57:34.498Z,48.10
2022-11-20T07:58:34.790Z,46.20
2022-11-20T07:59:36.023Z,48.20
2022-11-20T08:00:35.336Z,47.20
2022-11-20T08:01:35.601Z,45.80
2022-11-20T08:02:35.864Z,44.20
2022-11-20T08:03:36.139Z,43.00
2022-11-20T08:04:36.829Z,39.40
2022-11-20T08:05:36.651Z,40.60
2022-11-20T08:06:37.214Z,37.90
2022-11-20T08:07:37.310Z,37.10
2022-11-20T08:08:42.437Z,38.00
2022-11-20T08:09:38.873Z,35.10
2022-11-20T08:10:38.137Z,34.30
2022-11-20T08:11:38.438Z,35.60
2022-11-20T08:12:39.036Z,36.20
2022-11-20T08:13:39.005Z,34.80
2022-11-20T08:14:39.529Z,33.50
2022-11-20T08:15:39.518Z,35.50
2022-11-20T08:16:39.788Z,33.00
2022-11-20T08:17:40.063Z,34.40
2022-11-20T08:18:40.317Z,33.90
2022-11-20T08:19:40.590Z,31.30
2022-11-20T08:20:40.831Z,30.60
2022-11-20T08:21:41.456Z,29.90
2022-11-20T08:22:41.376Z,32.70
2022-11-20T08:23:41.662Z,30.40
2022-11-20T08:24:42.074Z,31.40
2022-11-20T08:25:42.345Z,32.30
2022-11-20T08:26:42.589Z,30.60
2022-11-20T08:27:43.025Z,33.60
2022-11-20T08:28:43.167Z,30.30
2022-11-20T08:29:43.482Z,31.30
2022-11-20T08:30:43.760Z,32.90
2022-11-20T08:31:44.095Z,30.70
2022-11-20T08:32:44.334Z,29.80
2022-11-20T08:33:44.601Z,28.90
2022-11-20T08:34:44.863Z,30.40
2022-11-20T08:35:45.150Z,31.00
2022-11-20T08:36:45.407Z,30.40
2022-11-20T08:37:45.653Z,30.50
2022-11-20T08:38:45.966Z,33.00
2022-11-20T08:39:46.214Z,33.20
2022-11-20T08:40:46.483Z,31.80
2022-11-20T08:41:46.786Z,30.90
2022-11-20T08:42:47.024Z,32.50
2022-11-20T08:43:47.317Z,34.80
2022-11-20T08:44:47.587Z,32.30
2022-11-20T08:45:47.850Z,34.30
2022-11-20T08:46:48.103Z,34.70
2022-11-20T08:47:48.418Z,37.50
2022-11-20T08:48:48.685Z,37.80
2022-11-20T08:49:49.003Z,38.30
2022-11-20T08:50:49.326Z,42.10
2022-11-20T08:51:49.568Z,45.50
2022-11-20T08:52:49.824Z,44.10
2022-11-20T08:53:50.131Z,46.80
2022-11-20T08:54:50.686Z,52.90
2022-11-20T08:55:50.603Z,51.60
2022-11-20T08:56:50.946Z,55.20
2022-11-20T08:57:51.334Z,52.00
2022-11-20T09:00:06.171Z,53.70
2022-11-20T09:00:53.032Z,53.30
2022-11-20T09:01:52.313Z,56.10
2022-11-20T09:02:52.651Z,57.40
2022-11-20T09:03:52.902Z,55.60
2022-11-20T09:04:53.163Z,55.70
2022-11-20T09:05:53.449Z,58.30
2022-11-20T09:06:53.655Z,54.00
2022-11-20T09:07:53.974Z,56.70
2022-11-20T09:08:54.165Z,56.70
2022-11-20T09:10:55.711Z,55.10
2022-11-20T09:11:55.024Z,55.30
2022-11-20T09:12:55.338Z,59.70
2022-11-20T09:13:55.594Z,57.40
2022-11-20T09:14:55.826Z,57.80
2022-11-20T09:15:56.076Z,56.70
2022-11-20T09:16:56.796Z,60.50
2022-11-20T09:17:56.636Z,59.50
2022-11-20T09:19:13.482Z,61.70
2022-11-20T09:19:58.178Z,61.20
2022-11-20T09:20:57.572Z,59.60
2022-11-20T09:21:59.850Z,61.10
2022-11-20T09:22:58.027Z,62.00
2022-11-20T09:23:58.337Z,62.10
2022-11-20T09:24:58.547Z,62.00
2022-11-20T09:25:58.836Z,65.70
2022-11-20T09:26:59.135Z,66.90
2022-11-20T09:27:59.389Z,69.20
2022-11-20T09:28:59.641Z,73.70
2022-11-20T09:29:59.947Z,77.30
2022-11-20T09:31:00.161Z,75.00
2022-11-20T09:32:00.422Z,79.70
2022-11-20T09:33:00.654Z,78.70
2022-11-20T09:34:00.974Z,79.00
2022-11-20T09:36:01.436Z,84.30
2022-11-20T09:37:04.640Z,80.30
2022-11-20T09:38:03.018Z,83.30
2022-11-20T09:39:02.273Z,83.70
2022-11-20T09:40:02.533Z,81.20
2022-11-20T09:41:02.838Z,84.90
2022-11-20T09:42:04.034Z,79.70
2022-11-20T09:43:03.442Z,85.10
2022-11-20T09:44:03.757Z,82.10
2022-11-20T09:45:03.943Z,81.40
2022-11-20T09:46:04.259Z,86.40
2022-11-20T09:47:04.565Z,84.80
2022-11-20T09:48:04.834Z,87.90
2022-11-20T09:49:05.059Z,83.70
2022-11-20T09:50:05.314Z,90.30
2022-11-20T09:51:05.619Z,93.40
2022-11-20T09:52:05.890Z,89.70
2022-11-20T09:53:06.165Z,94.30
2022-11-20T09:54:06.433Z,88.80
2022-11-20T09:55:06.692Z,87.40
2022-11-20T09:56:07.013Z,81.50
2022-11-20T09:57:07.216Z,86.00
2022-11-20T09:58:07.508Z,87.30
2022-11-20T09:59:07.780Z,83.00
2022-11-20T10:00:08.079Z,85.40
2022-11-20T10:01:09.301Z,81.40
2022-11-20T10:02:08.631Z,84.00
2022-11-20T10:03:08.860Z,83.90
2022-11-20T10:04:09.139Z,85.20
2022-11-20T10:05:09.800Z,83.50
2022-11-20T10:06:09.664Z,82.00
2022-11-20T10:07:31.452Z,85.00
2022-11-20T10:08:11.313Z,89.30
2022-11-20T10:09:10.520Z,87.70
2022-11-20T10:10:10.760Z,84.30
2022-11-20T10:11:11.023Z,87.10
2022-11-20T10:12:11.449Z,82.80
2022-11-20T10:13:11.624Z,87.50
2022-11-20T10:14:11.902Z,86.20
2022-11-20T10:15:12.188Z,82.50
2022-11-20T10:16:12.438Z,81.70
2022-11-20T10:17:12.675Z,85.10
2022-11-20T10:18:12.954Z,83.50
2022-11-20T10:19:13.265Z,92.40
2022-11-20T10:20:13.528Z,87.50
2022-11-20T10:21:13.788Z,84.30
2022-11-20T10:22:14.055Z,87.80
2022-11-20T10:23:14.538Z,82.40
2022-11-20T10:24:14.701Z,82.70
2022-11-20T10:25:14.993Z,87.50
2022-11-20T10:26:15.225Z,86.40
2022-11-20T10:27:15.496Z,82.90
2022-11-20T10:28:15.847Z,88.40
2022-11-20T10:29:16.153Z,86.70
2022-11-20T10:30:16.494Z,85.30
2022-11-20T10:31:16.625Z,83.90
2022-11-20T10:32:16.927Z,85.50
2022-11-20T10:33:17.173Z,83.80
2022-11-20T10:34:22.415Z,84.80
2022-11-20T10:35:18.745Z,84.30
2022-11-20T10:36:18.048Z,86.40
2022-11-20T10:37:18.756Z,80.10
2022-11-20T10:38:18.622Z,82.00
2022-11-20T10:39:19.199Z,79.30
2022-11-20T10:40:19.162Z,77.80
2022-11-20T10:41:19.454Z,78.00
2022-11-20T10:42:19.736Z,73.20
2022-11-20T10:43:19.951Z,76.40
2022-11-20T10:44:20.535Z,75.10
2022-11-20T10:45:20.517Z,77.40
2022-11-20T10:46:20.793Z,77.60
2022-11-20T10:47:21.939Z,74.80
2022-11-20T10:48:21.361Z,76.50
2022-11-20T10:49:21.751Z,71.70
2022-11-20T10:50:22.825Z,74.50
2022-11-20T10:51:22.186Z,73.60
2022-11-20T10:52:22.415Z,71.40
2022-11-20T10:53:22.697Z,76.20
2022-11-20T10:54:23.006Z,71.90
2022-11-20T10:55:23.237Z,74.70
2022-11-20T10:56:23.522Z,75.10
2022-11-20T10:57:23.812Z,80.20
2022-11-20T10:58:24.090Z,76.10
2022-11-20T10:59:24.563Z,80.10
2022-11-20T11:00:24.631Z,81.80
2022-11-20T11:01:25.050Z,83.60
2022-11-20T11:02:25.190Z,80.70
2022-11-20T11:03:25.438Z,82.30
2022-11-20T11:04:25.731Z,83.90
2022-11-20T11:05:26.054Z,82.70
2022-11-20T11:06:26.361Z,84.30
2022-11-20T11:07:26.750Z,86.20
2022-11-20T11:08:26.845Z,84.70
2022-11-20T11:09:27.163Z,83.10
2022-11-20T11:10:27.458Z,84.70
2022-11-20T11:11:27.703Z,87.00
2022-11-20T11:12:28.043Z,82.60
2022-11-20T11:13:28.144Z,82.40
2022-11-20T11:14:28.430Z,83.20
2022-11-20T11:15:28.671Z,82.90
2022-11-20T11:16:29.052Z,79.90
2022-11-20T11:17:29.168Z,83.00
2022-11-20T11:18:29.431Z,80.80
2022-11-20T11:19:29.696Z,76.80
2022-11-20T11:20:30.007Z,81.40
2022-11-20T11:21:31.114Z,80.90
2022-11-20T11:22:30.588Z,77.40
2022-11-20T11:23:30.848Z,77.50
2022-11-20T11:24:46.498Z,66.60
2022-11-20T11:25:32.476Z,54.90
2022-11-20T11:26:31.900Z,56.20
2022-11-20T11:27:32.019Z,54.80
2022-11-20T11:28:32.289Z,49.80
2022-11-20T11:29:32.563Z,51.10
2022-11-20T11:30:32.819Z,45.70
2022-11-20T11:31:33.113Z,42.80
2022-11-20T11:32:33.392Z,43.40
2022-11-20T11:33:33.668Z,39.40
2022-11-20T11:34:33.934Z,37.60
2022-11-20T11:35:34.186Z,34.30
2022-11-20T11:36:34.464Z,32.20
2022-11-20T11:37:34.742Z,35.50
2022-11-20T11:38:35.064Z,32.00
2022-11-20T11:39:35.328Z,31.30
2022-11-20T11:40:35.601Z,34.00
2022-11-20T11:41:35.853Z,30.30
2022-11-20T11:42:36.151Z,29.80
2022-11-20T11:43:37.963Z,33.10
2022-11-20T11:44:36.720Z,33.20
2022-11-20T11:45:36.973Z,30.60
2022-11-20T11:46:37.306Z,29.70
2022-11-20T11:47:37.580Z,28.70
2022-11-20T11:48:37.865Z,29.90
2022-11-20T11:49:38.188Z,30.10
2022-11-20T11:50:38.494Z,31.60
2022-11-20T11:51:38.722Z,27.20
2022-11-20T11:52:38.995Z,30.10
2022-11-20T11:53:39.254Z,27.10
2022-11-20T11:54:39.577Z,27.90
2022-11-20T11:55:39.848Z,27.40
2022-11-20T11:56:40.110Z,30.20
2022-11-20T11:57:40.387Z,27.30
2022-11-20T11:58:40.704Z,25.60
2022-11-20T11:59:40.944Z,24.90
2022-11-20T12:00:41.252Z,25.40
2022-11-20T12:01:41.556Z,25.50
2022-11-20T12:02:41.962Z,29.60
2022-11-20T12:03:42.117Z,28.10
2022-11-20T12:04:42.878Z,29.00
2022-11-20T12:05:42.687Z,28.10
2022-11-20T12:06:42.986Z,28.10
2022-11-20T12:07:47.596Z,23.60
2022-11-20T12:08:43.628Z,22.70
2022-11-20T12:09:43.974Z,22.80
2022-11-20T12:10:44.238Z,24.80
2022-11-20T12:11:44.466Z,25.80
2022-11-20T12:12:44.739Z,23.10
2022-11-20T12:13:45.001Z,23.80
2022-11-20T12:14:45.302Z,21.30
2022-11-20T12:15:45.614Z,21.40
2022-11-20T12:16:45.952Z,18.00
2022-11-20T12:17:46.271Z,23.20
2022-11-20T12:18:46.546Z,21.50
2022-11-20T12:19:46.842Z,25.90
2022-11-20T12:20:47.118Z,36.60
2022-11-20T12:21:47.355Z,27.60
2022-11-20T12:22:47.674Z,27.10
2022-11-20T12:23:47.928Z,22.20
2022-11-20T12:24:48.220Z,19.80
2022-11-20T12:25:48.462Z,20.10
2022-11-20T12:26:48.749Z,22.20
2022-11-20T12:27:49.111Z,22.90
2022-11-20T12:28:49.192Z,23.90
2022-11-20T12:29:49.454Z,22.80
2022-11-20T12:30:49.736Z,23.60
2022-11-20T12:31:50.008Z,24.10
2022-11-20T12:32:50.273Z,22.10
2022-11-20T12:33:50.555Z,20.30
2022-11-20T12:34:50.826Z,19.50
2022-11-20T12:35:51.098Z,18.20
2022-11-20T12:36:51.363Z,19.00
2022-11-20T12:37:51.614Z,19.10
2022-11-20T12:38:51.968Z,21.60
2022-11-20T12:39:52.288Z,20.00
2022-11-20T12:40:52.543Z,17.80
2022-11-20T12:41:52.759Z,20.50
2022-11-20T12:42:53.122Z,23.00
2022-11-20T12:43:53.870Z,28.70
2022-11-20T12:44:53.606Z,24.60
2022-11-20T12:45:53.891Z,24.10
2022-11-20T12:46:54.137Z,23.60
2022-11-20T12:47:54.415Z,19.90
2022-11-20T12:48:54.743Z,20.80
2022-11-20T12:49:54.959Z,18.50
2022-11-20T12:51:56.469Z,16.70
2022-11-20T12:52:55.743Z,18.80
2022-11-20T12:53:56.009Z,16.00
2022-11-20T12:54:56.310Z,18.20
2022-11-20T12:55:56.521Z,22.20
2022-11-20T12:57:02.307Z,22.30
2022-11-20T12:57:58.068Z,23.70
2022-11-20T12:58:57.368Z,27.00
2022-11-20T12:59:57.573Z,25.50